Time;durP1;ratioP1;P1;durP2;ratioP2;P2;SDS_P1;SDS_P2;PMS_P1;PMS_P2;Temp;Humidity;BMP_temperature;BMP_pressure;BME280_temperature;BME280_humidity;BME280_pressure;Samples;Min_cycle;Max_cycle;Signal;HPM_P1;HPM_P2
2023/07/15 00:01:23;;;;;;;5.57;3.42;;;24.40;52.20;;;;;;5051315;28;20029;-42
2023/07/15 00:03:51;;;;;;;7.00;4.00;;;24.40;52.10;;;;;;5046625;28;20029;-44
2023/07/15 00:06:18;;;;;;;6.85;4.18;;;24.40;52.20;;;;;;5033376;28;20042;-45
2023/07/15 00:08:44;;;;;;;7.35;3.97;;;24.40;52.20;;;;;;5050557;28;20408;-45
2023/07/15 00:11:34;;;;;;;6.47;3.83;;;24.40;52.30;;;;;;5051045;28;20489;-42
2023/07/15 00:14:02;;;;;;;6.30;3.60;;;24.40;52.30;;;;;;5028219;28;20116;-45
2023/07/15 00:16:29;;;;;;;5.72;3.50;;;24.40;52.20;;;;;;5033382;28;20506;-44
2023/07/15 00:18:55;;;;;;;7.07;4.10;;;24.50;52.30;;;;;;5033347;28;20035;-45
2023/07/15 00:21:24;;;;;;;6.68;3.55;;;24.40;52.20;;;;;;5033334;28;20038;-46
2023/07/15 00:23:55;;;;;;;4.72;3.40;;;24.40;52.30;;;;;;5032541;28;20391;-45
2023/07/15 00:26:32;;;;;;;6.15;3.85;;;24.40;52.30;;;;;;5033347;28;20525;-45
2023/07/15 00:28:58;;;;;;;6.03;3.80;;;24.40;52.30;;;;;;5079401;22;20044;-53
2023/07/15 00:31:26;;;;;;;5.25;3.60;;;24.40;52.30;;;;;;5071882;28;20376;-53
2023/07/15 00:33:52;;;;;;;5.97;3.63;;;24.50;52.30;;;;;;5071472;28;20020;-51
2023/07/15 00:36:18;;;;;;;6.88;3.38;;;24.40;52.30;;;;;;5071550;28;20059;-50
2023/07/15 00:38:46;;;;;;;6.40;3.75;;;24.50;52.30;;;;;;5041967;28;20561;-50
2023/07/15 00:41:19;;;;;;;6.10;3.78;;;24.50;52.30;;;;;;5051721;28;20113;-47
2023/07/15 00:43:55;;;;;;;6.43;4.18;;;24.50;52.30;;;;;;5051392;28;20048;-47
2023/07/15 00:46:22;;;;;;;5.45;3.42;;;24.50;52.30;;;;;;5051723;28;20431;-51
2023/07/15 00:49:13;;;;;;;5.28;3.63;;;24.50;52.30;;;;;;5033675;28;20021;-48
2023/07/15 00:51:44;;;;;;;6.80;4.00;;;24.50;52.40;;;;;;5033864;28;20028;-49
2023/07/15 00:54:13;;;;;;;6.63;3.47;;;24.50;52.30;;;;;;5033049;28;20033;-49
2023/07/15 00:56:40;;;;;;;5.70;3.67;;;24.50;53.00;;;;;;5051332;28;20036;-50
2023/07/15 00:59:08;;;;;;;7.03;3.90;;;24.50;52.40;;;;;;5051468;28;20039;-49
2023/07/15 01:01:34;;;;;;;5.90;3.58;;;24.50;52.40;;;;;;5051340;28;20055;-51
2023/07/15 01:04:01;;;;;;;6.30;3.65;;;24.50;52.40;;;;;;5032664;28;20552;-48
2023/07/15 01:06:27;;;;;;;5.38;3.42;;;24.50;52.40;;;;;;5051339;28;20481;-52
2023/07/15 01:08:53;;;;;;;6.85;3.67;;;24.50;52.30;;;;;;5051349;28;20037;-48
2023/07/15 01:11:19;;;;;;;5.10;3.60;;;24.50;52.40;;;;;;5051030;28;20032;-53
2023/07/15 01:13:45;;;;;;;6.13;3.17;;;24.50;52.50;;;;;;5032780;28;20037;-49
2023/07/15 01:16:10;;;;;;;5.57;3.47;;;24.50;52.50;;;;;;5051104;28;20492;-53
2023/07/15 01:18:38;;;;;;;6.47;3.55;;;24.50;52.40;;;;;;5033063;28;20044;-47
2023/07/15 01:21:05;;;;;;;6.43;3.38;;;24.50;52.50;;;;;;5033328;28;20397;-49
2023/07/15 01:23:31;;;;;;;5.68;3.78;;;24.40;52.40;;;;;;5050977;28;20072;-49
2023/07/15 01:25:57;;;;;;;6.80;3.75;;;24.50;52.40;;;;;;5050396;28;20472;-53
2023/07/15 01:28:23;;;;;;;7.05;3.90;;;24.50;52.50;;;;;;5050720;28;20108;-50
2023/07/15 01:30:49;;;;;;;6.45;3.90;;;24.40;52.50;;;;;;5034355;28;20029;-46
2023/07/15 01:33:15;;;;;;;5.78;3.38;;;24.40;52.50;;;;;;5034635;28;20029;-52
2023/07/15 01:35:48;;;;;;;5.03;3.40;;;24.40;52.40;;;;;;5051321;28;20037;-53
2023/07/15 01:38:15;;;;;;;6.13;3.33;;;24.40;52.50;;;;;;5052383;28;20522;-52
2023/07/15 01:40:41;;;;;;;4.60;3.03;;;24.40;52.50;;;;;;5034697;28;20025;-50
2023/07/15 01:43:07;;;;;;;6.28;3.60;;;24.40;52.60;;;;;;5052518;28;20025;-52
2023/07/15 01:45:33;;;;;;;7.00;3.45;;;24.40;52.70;;;;;;5034344;28;20401;-53
2023/07/15 01:47:58;;;;;;;5.65;3.30;;;24.40;52.60;;;;;;5052205;28;20523;-52
2023/07/15 01:50:24;;;;;;;5.15;3.15;;;24.40;52.60;;;;;;5052309;28;20029;-47
2023/07/15 01:52:50;;;;;;;5.43;3.38;;;24.40;52.70;;;;;;5034396;28;20465;-47
2023/07/15 01:55:16;;;;;;;6.45;3.33;;;24.40;52.60;;;;;;5034160;28;20111;-46
2023/07/15 01:57:42;;;;;;;7.90;3.45;;;24.40;52.70;;;;;;5052061;28;20021;-47
2023/07/15 02:00:11;;;;;;;5.75;3.60;;;24.40;52.70;;;;;;5034411;28;20113;-47
2023/07/15 02:02:39;;;;;;;5.63;3.30;;;24.40;53.20;;;;;;5052149;28;20493;-46
2023/07/15 02:05:05;;;;;;;5.30;3.65;;;24.40;52.70;;;;;;5051813;28;20028;-45
2023/07/15 02:07:31;;;;;;;4.60;3.10;;;24.40;52.70;;;;;;5034027;28;20041;-45
2023/07/15 02:09:58;;;;;;;4.60;3.35;;;24.40;52.70;;;;;;5034259;28;20029;-46
2023/07/15 02:12:24;;;;;;;7.20;3.45;;;24.40;52.70;;;;;;5051908;28;20399;-47
2023/07/15 02:14:50;;;;;;;7.47;3.22;;;24.40;52.80;;;;;;5051565;28;20065;-46
2023/07/15 02:17:20;;;;;;;5.22;3.15;;;24.40;52.70;;;;;;5034162;28;20033;-46
2023/07/15 02:19:47;;;;;;;5.35;3.20;;;24.40;52.80;;;;;;5051940;28;20107;-47
2023/07/15 02:22:13;;;;;;;5.65;3.30;;;24.40;52.70;;;;;;5051666;28;20452;-48
2023/07/15 02:24:38;;;;;;;5.88;3.50;;;24.40;52.80;;;;;;5051672;28;20033;-46
2023/07/15 02:27:06;;;;;;;7.32;3.45;;;24.40;52.90;;;;;;5033966;28;20024;-46
2023/07/15 02:29:32;;;;;;;5.57;3.50;;;24.40;52.90;;;;;;5033777;28;20040;-46
2023/07/15 02:31:58;;;;;;;6.45;3.30;;;24.40;53.50;;;;;;5051627;28;20033;-46
2023/07/15 02:34:24;;;;;;;7.47;3.58;;;24.40;52.90;;;;;;5033550;28;20044;-46
2023/07/15 02:36:50;;;;;;;4.25;3.05;;;24.40;52.90;;;;;;5051588;28;20025;-46
2023/07/15 02:39:16;;;;;;;5.35;3.22;;;24.30;52.80;;;;;;5051542;28;20404;-46
2023/07/15 02:41:43;;;;;;;4.90;3.30;;;24.40;52.90;;;;;;5051586;28;20025;-46
2023/07/15 02:44:08;;;;;;;5.40;3.20;;;24.40;52.90;;;;;;5051313;28;20496;-46
2023/07/15 02:46:34;;;;;;;4.53;3.28;;;24.40;52.90;;;;;;5033435;28;20035;-46
2023/07/15 02:49:00;;;;;;;5.28;3.15;;;24.40;53.00;;;;;;5051439;28;20036;-46
2023/07/15 02:51:26;;;;;;;4.82;3.50;;;24.40;53.00;;;;;;5051235;28;20055;-46
2023/07/15 02:53:52;;;;;;;5.45;3.22;;;24.40;52.90;;;;;;5051096;28;20079;-46
2023/07/15 02:56:18;;;;;;;5.40;3.47;;;24.40;52.90;;;;;;5051588;28;20025;-46
2023/07/15 02:58:44;;;;;;;5.35;3.30;;;24.40;52.90;;;;;;5051341;28;20017;-46
2023/07/15 03:01:09;;;;;;;5.10;3.30;;;24.40;52.80;;;;;;5051365;28;20066;-47
2023/07/15 03:03:38;;;;;;;6.10;3.03;;;24.40;52.90;;;;;;5051062;28;20032;-47
2023/07/15 03:06:04;;;;;;;3.88;2.95;;;24.40;52.90;;;;;;5051273;28;20029;-46
2023/07/15 03:08:30;;;;;;;4.65;2.92;;;24.40;52.80;;;;;;5051417;28;20104;-46
2023/07/15 03:10:57;;;;;;;6.32;3.55;;;24.50;52.90;;;;;;5051430;28;20498;-46
2023/07/15 03:13:26;;;;;;;5.40;3.35;;;24.40;52.80;;;;;;5051260;28;20106;-45
2023/07/15 03:15:53;;;;;;;5.70;3.22;;;24.40;52.90;;;;;;5051093;28;20033;-46
2023/07/15 03:18:21;;;;;;;6.05;3.17;;;24.40;52.90;;;;;;5033341;28;20484;-46
2023/07/15 03:20:48;;;;;;;4.50;3.10;;;24.40;52.80;;;;;;5051210;28;20029;-46
2023/07/15 03:23:14;;;;;;;5.82;3.00;;;24.40;52.90;;;;;;5051145;28;20032;-46
2023/07/15 03:25:40;;;;;;;6.47;2.90;;;24.50;52.90;;;;;;5050823;28;20029;-47
2023/07/15 03:28:06;;;;;;;5.47;3.28;;;24.50;53.00;;;;;;5050871;28;20035;-46
2023/07/15 03:30:32;;;;;;;3.55;2.50;;;24.40;52.90;;;;;;5033003;28;20399;-46
2023/07/15 03:32:58;;;;;;;5.18;2.80;;;24.50;53.00;;;;;;5050965;28;20029;-46
2023/07/15 03:35:24;;;;;;;4.15;3.03;;;24.50;53.10;;;;;;5050560;28;20064;-48
2023/07/15 03:37:50;;;;;;;4.97;3.20;;;24.50;53.00;;;;;;5033178;28;20049;-45
2023/07/15 03:40:16;;;;;;;7.65;3.30;;;24.40;53.00;;;;;;5051015;28;20505;-46
2023/07/15 03:42:42;;;;;;;4.35;3.10;;;24.50;53.00;;;;;;5050915;28;20381;-53
2023/07/15 03:45:09;;;;;;;4.30;2.88;;;24.40;53.00;;;;;;5050660;28;20480;-46
2023/07/15 03:47:35;;;;;;;4.75;3.10;;;24.40;53.00;;;;;;5050747;28;20021;-49
2023/07/15 03:50:02;;;;;;;4.82;2.90;;;24.40;53.00;;;;;;5050830;28;20037;-46
2023/07/15 03:52:28;;;;;;;7.35;3.33;;;24.40;53.10;;;;;;5050842;28;20029;-50
2023/07/15 03:54:55;;;;;;;5.10;3.42;;;24.40;53.10;;;;;;5050546;28;20057;-46
2023/07/15 03:57:21;;;;;;;4.10;2.63;;;24.40;53.10;;;;;;5050877;28;20446;-45
2023/07/15 03:59:47;;;;;;;4.45;3.15;;;24.40;53.10;;;;;;5054289;28;20025;-52
2023/07/15 04:02:12;;;;;;;3.38;2.58;;;24.40;53.10;;;;;;5054354;28;20384;-53
2023/07/15 04:04:38;;;;;;;5.22;3.20;;;24.40;53.80;;;;;;5054013;28;20025;-49
2023/07/15 04:07:04;;;;;;;4.13;3.10;;;24.30;53.10;;;;;;5054248;28;20029;-47
2023/07/15 04:09:30;;;;;;;4.57;2.90;;;24.40;53.20;;;;;;5054140;28;20033;-47
2023/07/15 04:11:56;;;;;;;5.38;3.17;;;24.40;53.20;;;;;;5054177;28;20031;-50
2023/07/15 04:14:22;;;;;;;4.65;3.22;;;24.40;53.30;;;;;;5053857;28;20033;-45
2023/07/15 04:16:48;;;;;;;4.40;3.22;;;24.40;53.30;;;;;;5054039;28;20025;-48
2023/07/15 04:19:14;;;;;;;5.32;3.05;;;24.40;53.30;;;;;;5053988;28;20029;-47
2023/07/15 04:21:40;;;;;;;4.82;3.08;;;24.40;53.30;;;;;;5054010;28;20025;-50
2023/07/15 04:24:06;;;;;;;7.05;3.53;;;24.40;53.30;;;;;;5053703;28;20017;-49
2023/07/15 04:26:31;;;;;;;5.57;3.30;;;24.40;53.30;;;;;;5053950;28;20104;-50
2023/07/15 04:28:58;;;;;;;5.35;2.90;;;24.40;53.30;;;;;;5052543;28;20029;-47
2023/07/15 04:31:24;;;;;;;6.00;3.33;;;24.40;53.30;;;;;;5052785;28;20021;-46
2023/07/15 04:33:51;;;;;;;5.15;3.05;;;24.40;53.30;;;;;;5053100;28;20032;-49
2023/07/15 04:36:19;;;;;;;4.45;2.97;;;24.40;53.40;;;;;;5052300;28;20029;-47
2023/07/15 04:38:45;;;;;;;5.40;3.30;;;24.40;53.40;;;;;;5053572;28;20029;-47
2023/07/15 04:41:11;;;;;;;4.78;3.38;;;24.40;53.40;;;;;;5053524;28;20104;-46
2023/07/15 04:43:37;;;;;;;4.85;3.28;;;24.40;53.30;;;;;;5053307;28;20071;-46
2023/07/15 04:46:04;;;;;;;5.38;3.17;;;24.40;53.40;;;;;;5053631;28;20447;-46
2023/07/15 04:48:30;;;;;;;4.68;3.40;;;24.40;53.40;;;;;;5053411;28;20048;-46
2023/07/15 04:50:57;;;;;;;7.35;3.28;;;24.40;53.40;;;;;;5053404;28;20060;-47
2023/07/15 04:53:23;;;;;;;4.95;3.28;;;24.30;53.40;;;;;;5053325;28;20523;-47
2023/07/15 04:55:49;;;;;;;6.40;3.40;;;24.30;53.40;;;;;;5053065;28;20115;-46
2023/07/15 04:58:18;;;;;;;5.65;3.17;;;24.40;53.50;;;;;;5053163;28;20099;-49
2023/07/15 05:00:45;;;;;;;5.57;3.13;;;24.40;53.60;;;;;;5053272;28;20053;-50
2023/07/15 05:03:12;;;;;;;5.88;3.40;;;24.30;53.50;;;;;;5053405;28;20078;-50
2023/07/15 05:05:39;;;;;;;6.38;3.28;;;24.30;53.50;;;;;;5052998;28;20031;-50
2023/07/15 05:08:16;;;;;;;6.55;3.67;;;24.40;53.60;;;;;;5053057;28;20025;-50
2023/07/15 05:10:43;;;;;;;5.95;3.65;;;24.40;53.60;;;;;;5052939;28;20029;-51
2023/07/15 05:13:09;;;;;;;6.47;3.67;;;24.40;53.60;;;;;;5053056;28;20029;-48
2023/07/15 05:15:36;;;;;;;7.20;3.70;;;24.40;53.60;;;;;;5052653;28;20104;-46
2023/07/15 05:18:04;;;;;;;5.82;3.75;;;24.40;53.60;;;;;;5035202;28;20076;-51
2023/07/15 05:20:31;;;;;;;6.88;3.85;;;24.40;53.60;;;;;;5052863;28;20021;-48
2023/07/15 05:22:57;;;;;;;8.27;4.28;;;24.40;53.50;;;;;;5052814;28;20098;-52
2023/07/15 05:25:23;;;;;;;6.38;4.00;;;24.40;53.60;;;;;;5052479;28;20112;-51
2023/07/15 05:27:49;;;;;;;5.50;3.72;;;24.50;53.60;;;;;;5052504;28;20128;-52
2023/07/15 05:30:15;;;;;;;6.78;4.07;;;24.50;53.60;;;;;;5052468;28;20029;-53
2023/07/15 05:32:41;;;;;;;7.13;4.07;;;24.40;53.50;;;;;;5052571;28;20508;-50
2023/07/15 05:35:07;;;;;;;6.55;4.18;;;24.50;53.70;;;;;;5052224;28;20040;-50
2023/07/15 05:37:33;;;;;;;5.15;3.83;;;24.40;53.60;;;;;;5034787;28;20079;-50
2023/07/15 05:39:59;;;;;;;6.97;4.25;;;24.50;53.60;;;;;;5052626;28;20049;-53
2023/07/15 05:42:25;;;;;;;7.22;3.55;;;24.50;53.60;;;;;;5052503;28;20025;-48
2023/07/15 05:44:51;;;;;;;9.00;4.00;;;24.40;53.60;;;;;;5052536;28;20040;-51
2023/07/15 05:47:17;;;;;;;6.95;4.10;;;24.40;53.60;;;;;;5052316;28;20025;-51
2023/07/15 05:49:42;;;;;;;6.28;3.42;;;24.50;53.70;;;;;;5052152;28;20555;-51
2023/07/15 05:52:08;;;;;;;8.88;4.07;;;24.50;53.80;;;;;;5052218;28;20089;-52
2023/07/15 05:54:34;;;;;;;6.90;4.13;;;24.50;53.70;;;;;;5051902;28;20518;-53
2023/07/15 05:57:00;;;;;;;7.10;4.20;;;24.50;53.70;;;;;;5052208;28;20366;-52
2023/07/15 05:59:26;;;;;;;5.53;3.58;;;24.50;53.70;;;;;;5052064;28;20029;-51
2023/07/15 06:01:51;;;;;;;5.80;3.70;;;24.50;53.80;;;;;;5052056;28;20059;-46
2023/07/15 06:04:17;;;;;;;6.30;3.78;;;24.50;53.70;;;;;;5051767;28;20469;-49
2023/07/15 06:06:43;;;;;;;9.43;4.20;;;24.50;53.70;;;;;;5051613;28;20025;-48
2023/07/15 06:09:09;;;;;;;5.80;3.78;;;24.50;53.70;;;;;;5051885;28;20025;-49
2023/07/15 06:11:34;;;;;;;7.45;4.00;;;24.50;53.70;;;;;;5051959;28;20178;-46
2023/07/15 06:14:03;;;;;;;6.18;3.83;;;24.50;53.70;;;;;;5051484;28;20086;-51
2023/07/15 06:16:29;;;;;;;6.53;3.50;;;24.50;53.70;;;;;;5052009;28;20036;-46
2023/07/15 06:18:55;;;;;;;6.53;3.25;;;24.50;53.60;;;;;;5051835;28;20111;-46
2023/07/15 06:21:21;;;;;;;5.75;3.67;;;24.50;53.60;;;;;;5051257;28;20068;-46
2023/07/15 06:23:47;;;;;;;5.35;3.80;;;24.50;53.60;;;;;;5051586;28;20103;-48
2023/07/15 06:26:13;;;;;;;7.10;3.80;;;24.50;53.60;;;;;;5051713;28;20029;-47
2023/07/15 06:28:39;;;;;;;6.32;3.30;;;24.50;53.70;;;;;;5083761;23;20105;-43
2023/07/15 06:31:06;;;;;;;6.65;4.15;;;24.50;53.70;;;;;;5098159;28;20020;-43
2023/07/15 06:33:36;;;;;;;5.95;4.10;;;24.50;53.70;;;;;;5091769;28;20020;-43
2023/07/15 06:36:02;;;;;;;;;;;24.50;53.80;;;;;;5092576;28;20028;-44
2023/07/15 06:38:28;;;;;;;6.65;4.35;;;24.40;53.70;;;;;;5091819;28;19908;-45
2023/07/15 06:40:55;;;;;;;8.02;4.25;;;24.40;53.70;;;;;;5091710;28;20027;-46
2023/07/15 06:43:21;;;;;;;5.78;4.10;;;24.50;53.80;;;;;;5091869;28;20089;-43
2023/07/15 06:45:47;;;;;;;6.82;4.28;;;24.50;53.80;;;;;;5091323;28;20024;-43
2023/07/15 06:48:13;;;;;;;6.47;4.30;;;24.50;53.80;;;;;;5091819;28;20029;-45
2023/07/15 06:50:39;;;;;;;8.23;4.75;;;24.50;53.90;;;;;;5091772;28;20072;-45
2023/07/15 06:53:04;;;;;;;6.38;4.20;;;24.50;53.90;;;;;;5092115;28;20404;-45
2023/07/15 06:55:30;;;;;;;6.25;4.13;;;24.50;53.90;;;;;;5091337;28;20039;-43
2023/07/15 06:57:56;;;;;;;7.53;4.82;;;24.50;53.90;;;;;;5091682;28;20035;-43
2023/07/15 07:00:22;;;;;;;8.18;4.70;;;24.50;53.90;;;;;;5092037;28;20031;-41
2023/07/15 07:02:48;;;;;;;5.93;4.22;;;24.50;54.00;;;;;;5091638;28;20024;-42
2023/07/15 07:05:15;;;;;;;8.57;4.82;;;24.50;54.00;;;;;;5091304;28;20030;-40
2023/07/15 07:07:41;;;;;;;8.30;4.95;;;24.50;54.00;;;;;;5091529;28;20039;-41
2023/07/15 07:10:08;;;;;;;5.38;4.03;;;24.50;54.10;;;;;;5091551;28;20027;-42
2023/07/15 07:12:34;;;;;;;7.70;4.40;;;24.50;54.00;;;;;;5092020;28;20032;-41
2023/07/15 07:14:59;;;;;;;7.53;4.80;;;24.50;54.00;;;;;;5091050;28;20035;-45
2023/07/15 07:17:25;;;;;;;8.35;5.05;;;24.50;54.10;;;;;;5091306;28;20028;-46
2023/07/15 07:19:51;;;;;;;6.70;4.97;;;24.50;54.10;;;;;;5091293;28;20024;-42
2023/07/15 07:22:17;;;;;;;7.35;4.80;;;24.50;54.10;;;;;;5091383;28;20031;-41
2023/07/15 07:24:43;;;;;;;7.93;4.55;;;24.50;54.10;;;;;;5091116;28;20024;-44
2023/07/15 07:27:11;;;;;;;10.60;5.10;;;24.50;54.10;;;;;;5091386;28;20032;-41
2023/07/15 07:29:38;;;;;;;7.57;5.15;;;24.50;54.20;;;;;;5090780;28;20051;-49
2023/07/15 07:32:04;;;;;;;8.45;5.65;;;24.50;54.20;;;;;;5091264;28;20028;-45
2023/07/15 07:34:30;;;;;;;7.13;4.95;;;24.50;54.70;;;;;;5094338;28;20119;-45
2023/07/15 07:36:56;;;;;;;8.13;5.15;;;24.50;54.10;;;;;;5095094;28;20060;-45
2023/07/15 07:39:22;;;;;;;11.13;5.70;;;24.50;54.10;;;;;;5095018;28;20046;-45
2023/07/15 07:41:47;;;;;;;8.25;5.38;;;24.50;54.10;;;;;;5095271;28;20517;-42
2023/07/15 07:44:13;;;;;;;10.02;5.55;;;24.50;54.10;;;;;;5094749;28;20024;-44
2023/07/15 07:46:39;;;;;;;8.13;5.20;;;24.50;54.20;;;;;;5095081;28;20095;-47
2023/07/15 07:49:05;;;;;;;9.10;5.68;;;24.50;54.10;;;;;;5094822;28;20112;-45
2023/07/15 07:51:31;;;;;;;8.25;5.35;;;24.50;54.10;;;;;;5094911;28;20020;-45
2023/07/15 07:53:56;;;;;;;8.80;5.32;;;24.60;54.70;;;;;;5094556;28;20054;-44
2023/07/15 07:56:23;;;;;;;9.38;5.35;;;24.50;54.10;;;;;;5094836;28;20513;-43
2023/07/15 07:58:54;;;;;;;8.90;5.65;;;24.50;54.10;;;;;;5094663;28;20028;-44
2023/07/15 08:01:21;;;;;;;9.23;5.20;;;24.50;54.20;;;;;;5094828;28;20028;-43
2023/07/15 08:03:47;;;;;;;10.10;4.97;;;24.60;54.20;;;;;;5094500;28;20031;-45
2023/07/15 08:06:13;;;;;;;7.72;5.13;;;24.60;54.20;;;;;;5094615;28;20024;-44
2023/07/15 08:08:39;;;;;;;6.47;4.75;;;24.60;54.30;;;;;;5094505;28;20031;-47
2023/07/15 08:11:05;;;;;;;9.57;5.78;;;24.60;55.00;;;;;;5094591;28;20511;-46
2023/07/15 08:13:31;;;;;;;9.45;5.30;;;24.60;54.30;;;;;;5094213;28;20032;-44
2023/07/15 08:15:57;;;;;;;7.93;5.10;;;24.60;54.30;;;;;;5094401;28;20031;-48
2023/07/15 08:18:23;;;;;;;8.15;5.30;;;24.60;54.30;;;;;;5094293;28;20062;-43
2023/07/15 08:20:50;;;;;;;8.82;5.35;;;24.60;54.30;;;;;;5094364;28;20024;-44
2023/07/15 08:23:16;;;;;;;8.10;5.00;;;24.60;54.40;;;;;;5093080;28;20028;-49
2023/07/15 08:25:42;;;;;;;7.78;5.00;;;24.60;54.50;;;;;;5094045;28;20034;-43
2023/07/15 08:28:08;;;;;;;8.25;5.28;;;24.60;54.40;;;;;;5093974;28;20450;-41
2023/07/15 08:30:36;;;;;;;9.25;5.55;;;24.60;54.40;;;;;;5094173;28;20112;-47
2023/07/15 08:33:06;;;;;;;7.05;4.88;;;24.60;54.40;;;;;;5094045;28;20028;-42
2023/07/15 08:35:33;;;;;;;7.95;5.28;;;24.60;54.40;;;;;;5093738;28;20450;-41
2023/07/15 08:37:59;;;;;;;7.65;5.03;;;24.60;54.40;;;;;;5094048;28;20472;-42
2023/07/15 08:40:26;;;;;;;8.05;5.30;;;24.60;54.50;;;;;;5092674;28;20513;-43
2023/07/15 08:42:53;;;;;;;7.68;5.13;;;24.60;54.50;;;;;;5093836;28;20030;-40
2023/07/15 08:45:19;;;;;;;8.55;5.53;;;24.60;54.50;;;;;;5092128;28;20111;-41
2023/07/15 08:47:46;;;;;;;10.27;5.03;;;24.60;54.50;;;;;;5092451;28;20036;-41
2023/07/15 08:50:15;;;;;;;8.85;5.45;;;24.60;54.60;;;;;;5093792;28;20024;-44
2023/07/15 08:52:45;;;;;;;9.27;5.57;;;24.60;54.60;;;;;;5093796;28;20028;-40
2023/07/15 08:55:12;;;;;;;9.88;5.70;;;24.60;54.60;;;;;;5092473;28;20024;-41
2023/07/15 08:57:39;;;;;;;8.80;5.32;;;24.60;54.60;;;;;;5093571;28;20024;-44
2023/07/15 09:00:08;;;;;;;8.13;5.55;;;24.60;54.60;;;;;;5093610;28;20024;-41
2023/07/15 09:02:37;;;;;;;8.65;5.40;;;24.60;54.60;;;;;;5093459;28;20020;-42
2023/07/15 09:05:10;;;;;;;9.50;6.00;;;24.60;54.70;;;;;;5093176;28;20463;-41
2023/07/15 09:07:50;;;;;;;7.00;4.80;;;24.60;54.60;;;;;;5093259;28;20028;-41
2023/07/15 09:10:16;;;;;;;8.90;5.57;;;24.60;54.70;;;;;;5093528;28;20488;-42
2023/07/15 09:12:55;;;;;;;8.02;5.50;;;24.60;54.70;;;;;;5093291;28;20112;-47
2023/07/15 09:15:21;;;;;;;9.63;5.43;;;24.60;54.70;;;;;;5092965;28;20050;-47
2023/07/15 09:17:56;;;;;;;8.18;5.25;;;24.60;54.70;;;;;;5093233;28;20552;-41
2023/07/15 09:20:23;;;;;;;9.43;4.90;;;24.60;54.90;;;;;;5093155;28;20058;-46
2023/07/15 09:22:58;;;;;;;10.48;5.40;;;24.60;54.80;;;;;;5093228;28;20032;-44
2023/07/15 09:25:25;;;;;;;9.95;4.97;;;24.60;54.80;;;;;;5092902;28;20024;-46
2023/07/15 09:27:53;;;;;;;8.60;4.97;;;24.60;54.80;;;;;;5092776;28;20058;-42
2023/07/15 09:30:19;;;;;;;7.88;5.35;;;24.60;54.90;;;;;;5092849;28;20059;-46
2023/07/15 09:32:46;;;;;;;8.55;5.40;;;24.60;54.80;;;;;;5093050;28;20492;-41
2023/07/15 09:35:13;;;;;;;9.98;5.20;;;24.60;54.80;;;;;;5092471;28;20028;-46
2023/07/15 09:37:39;;;;;;;7.40;5.05;;;24.60;54.90;;;;;;5092860;28;20027;-41
2023/07/15 09:40:08;;;;;;;8.90;5.28;;;24.60;55.40;;;;;;5091583;28;20020;-43
2023/07/15 09:42:53;;;;;;;7.45;4.90;;;24.60;54.90;;;;;;5092729;28;20475;-42
2023/07/15 09:45:35;;;;;;;7.95;5.43;;;24.60;55.00;;;;;;5092584;28;20475;-41
2023/07/15 09:48:07;;;;;;;7.65;4.90;;;24.60;54.90;;;;;;5092602;28;20068;-41
2023/07/15 09:50:34;;;;;;;10.80;5.13;;;24.60;55.00;;;;;;5092668;28;20032;-41
2023/07/15 09:53:01;;;;;;;7.35;5.28;;;24.60;55.00;;;;;;5092518;28;20024;-41
2023/07/15 09:55:31;;;;;;;9.73;5.15;;;24.60;55.10;;;;;;5091418;28;20111;-48
2023/07/15 09:58:24;;;;;;;7.82;4.65;;;24.60;55.00;;;;;;5092507;28;20192;-49
2023/07/15 10:01:02;;;;;;;7.32;4.97;;;24.60;55.00;;;;;;5083746;28;20040;-51
2023/07/15 10:03:53;;;;;;;8.70;4.85;;;24.60;55.10;;;;;;5092500;28;20029;-50
2023/07/15 10:06:19;;;;;;;6.70;4.80;;;24.70;55.10;;;;;;5082443;28;20040;-48
2023/07/15 10:08:47;;;;;;;8.05;4.95;;;24.70;55.10;;;;;;5092187;28;20407;-43
2023/07/15 10:11:13;;;;;;;6.75;4.90;;;24.70;55.10;;;;;;5092309;28;20100;-48
2023/07/15 10:13:40;;;;;;;6.95;4.78;;;24.70;55.10;;;;;;5092006;28;20028;-50
2023/07/15 10:16:06;;;;;;;7.53;4.82;;;24.70;55.10;;;;;;5092224;28;20028;-44
2023/07/15 10:18:32;;;;;;;7.75;5.00;;;24.70;55.10;;;;;;5092200;28;20114;-50
2023/07/15 10:21:02;;;;;;;7.85;5.07;;;24.70;55.10;;;;;;5092120;28;20150;-43
2023/07/15 10:23:30;;;;;;;9.23;5.40;;;24.70;55.30;;;;;;5092194;28;20026;-43
2023/07/15 10:25:59;;;;;;;7.70;5.05;;;24.70;55.20;;;;;;5092299;28;20107;-43
2023/07/15 10:28:32;;;;;;;8.20;5.03;;;24.70;55.20;;;;;;5091961;28;20043;-45
2023/07/15 10:31:15;;;;;;;7.30;4.68;;;24.70;55.20;;;;;;5091934;28;20137;-43
2023/07/15 10:34:02;;;;;;;6.68;4.53;;;24.70;55.20;;;;;;5092478;28;20027;-41
2023/07/15 10:36:44;;;;;;;7.85;4.85;;;24.70;55.20;;;;;;5092436;28;20039;-41
2023/07/15 10:39:18;;;;;;;8.30;5.15;;;24.70;55.20;;;;;;5092484;28;20024;-41
2023/07/15 10:41:52;;;;;;;7.53;4.85;;;24.70;55.20;;;;;;5092068;28;20495;-43
2023/07/15 10:44:20;;;;;;;7.47;4.47;;;24.70;55.30;;;;;;5091894;28;20020;-41
2023/07/15 10:46:51;;;;;;;6.63;4.38;;;24.70;55.40;;;;;;5090823;28;20020;-42
2023/07/15 10:49:18;;;;;;;6.53;4.90;;;24.70;55.20;;;;;;5092097;28;20032;-42
2023/07/15 10:51:44;;;;;;;7.85;5.03;;;24.70;55.40;;;;;;5091711;28;20027;-44
2023/07/15 10:54:10;;;;;;;6.63;4.38;;;24.70;55.30;;;;;;5091497;28;20076;-44
2023/07/15 10:56:36;;;;;;;6.03;4.45;;;24.70;55.30;;;;;;5090603;28;20062;-45
2023/07/15 10:59:02;;;;;;;7.40;4.68;;;24.70;55.30;;;;;;5091650;28;20103;-43
2023/07/15 11:01:28;;;;;;;7.32;4.70;;;24.70;55.40;;;;;;5091652;28;20020;-45
2023/07/15 11:03:53;;;;;;;7.28;4.50;;;24.70;55.40;;;;;;5091411;28;20028;-44
2023/07/15 11:06:24;;;;;;;8.00;4.35;;;24.70;55.40;;;;;;5091599;28;20031;-45
2023/07/15 11:08:49;;;;;;;7.43;4.57;;;24.70;55.40;;;;;;5095777;28;20028;-45
2023/07/15 11:11:15;;;;;;;7.43;4.55;;;24.70;55.40;;;;;;5095725;28;20031;-41
2023/07/15 11:13:41;;;;;;;6.60;4.30;;;24.70;55.40;;;;;;5095443;28;20488;-41
2023/07/15 11:16:08;;;;;;;6.65;4.30;;;24.70;55.50;;;;;;5095506;28;20036;-45
2023/07/15 11:18:33;;;;;;;11.43;5.25;;;24.60;55.40;;;;;;5055342;28;20298;-41
2023/07/15 11:21:00;;;;;;;12.52;4.72;;;24.70;57.10;;;;;;5068205;28;20029;-41
2023/07/15 11:23:30;;;;;;;18.85;5.20;;;24.70;56.30;;;;;;5055250;28;20022;-42
2023/07/15 11:25:57;;;;;;;13.80;4.68;;;24.70;57.00;;;;;;5055032;28;20082;-43
2023/07/15 11:28:23;;;;;;;9.60;4.70;;;24.70;56.60;;;;;;5054633;28;20037;-41
2023/07/15 11:30:49;;;;;;;11.35;4.65;;;24.80;57.20;;;;;;5054922;28;20100;-41
2023/07/15 11:33:16;;;;;;;12.02;4.85;;;24.70;56.50;;;;;;5054844;28;20567;-41
2023/07/15 11:35:43;;;;;;;14.13;4.78;;;24.70;56.80;;;;;;5054447;28;20029;-41
2023/07/15 11:38:14;;;;;;;13.27;4.63;;;24.80;58.60;;;;;;5054656;28;20025;-41
2023/07/15 11:40:54;;;;;;;15.30;4.55;;;24.80;57.40;;;;;;5054547;28;20086;-44
2023/07/15 11:43:23;;;;;;;11.45;4.85;;;24.80;57.30;;;;;;5054695;28;20029;-44
2023/07/15 11:45:49;;;;;;;15.65;5.13;;;24.80;58.30;;;;;;5054570;28;20419;-44
2023/07/15 11:48:45;;;;;;;17.75;5.18;;;24.70;59.00;;;;;;5054471;28;20028;-42
2023/07/15 11:51:11;;;;;;;10.02;4.40;;;24.80;60.10;;;;;;4992769;28;20046;-42
2023/07/15 11:53:38;;;;;;;12.45;4.00;;;24.90;57.30;;;;;;4992499;28;20041;-46
2023/07/15 11:56:08;;;;;;;8.30;3.35;;;25.00;55.60;;;;;;4992667;28;20125;-43
2023/07/15 11:58:53;;;;;;;10.10;3.35;;;25.10;54.30;;;;;;4992661;28;20126;-48
2023/07/15 12:01:24;;;;;;;5.80;2.70;;;25.20;51.20;;;;;;4992740;28;20046;-49
2023/07/15 12:03:50;;;;;;;7.40;3.00;;;25.40;50.90;;;;;;4992458;28;20109;-48
2023/07/15 12:06:18;;;;;;;8.23;3.25;;;25.50;50.60;;;;;;4992630;28;20054;-44
2023/07/15 12:09:10;;;;;;;5.63;2.80;;;25.60;51.30;;;;;;4996063;28;20068;-47
2023/07/15 12:11:36;;;;;;;9.65;3.45;;;25.70;49.00;;;;;;5001860;28;20029;-47
2023/07/15 12:14:04;;;;;;;7.55;2.70;;;25.70;50.40;;;;;;5004127;28;20444;-45
